KDFW

Dallas-Fort Worth International Airport

Dallas-Fort Worth, Texas, USA
METAR KDFW 161153Z 00000KT 10SM SCT200 OVC230 04/00 A3021 RMK AO2 SLP229 T00440000 10056 20022 53000
Observed Flight Rules
Dec-16 @ 11:53 UTC (51 minutes ago) Visual Flight Rules
Visibility Clouds
10 miles
  • Scattered at 20,000' AGL
  • Overcast at 23,000' AGL
Temperatures Readings
Current 4°C / 39°F
Dewpoint 0°C / 32°F
Humidity 75%
Altimeter 30.21" Hg
Pressure 1022.9 hPa
Elevation 174
METAR KDFW 161153Z 00000KT 10SM SCT200 OVC230 04/00 A3021 RMK AO2 SLP229 T00440000 10056 20022 53000
Observed Flight Rules
Dec-16 @ 11:53 UTC
(51 minutes ago)
VFR
Clouds
  • Scattered at 20,000' AGL
  • Overcast at 23,000' AGL
Temperature Dewpoint
4°C / 39°F 0°C / 32°F
Humidity Altimeter Pressure
75% 30.21" Hg 1022.9 hPa